Dennisville, New Jersey
Current Conditions -  °F | °C
As of 3:55 AM on Wednesday 22 Oct 2014 (Local Time) from KWWD Reporting Station
Broken Clouds Broken Clouds  
Wind Chill: 55°   Ceiling: 8500
Heat Index: 55°   Visibility: 9mi
Dew Point: 52°   Wind: 5mph
Humidity: 88%   Direction: 300°WNW
Pressure: 29.8"   Gusts: NA
Location:  39.19°N, 74.82°W
Report Text: KWWD 220755Z AUTO 30004KT 9SM SCT009 BKN085 BKN120 13/11 A2980 RMK AO1 LTG DSNT N
Loading
Personal Weather Stations






























Interactive Weather Map
Tropical Storm Tracking
New forecast layout! Learn more

10-Day Weather Forecast

Advertisements
Track Severe Weather on mobile